createdAt,value
2023-05-06T00:02:22.047Z,100.00
2023-05-06T00:04:50.360Z,100.00
2023-05-06T00:07:18.495Z,100.00
2023-05-06T00:09:46.584Z,100.00
2023-05-06T00:12:15.144Z,100.00
2023-05-06T00:14:43.258Z,100.00
2023-05-06T00:17:11.849Z,100.00
2023-05-06T00:19:41.358Z,100.00
2023-05-06T00:22:09.441Z,100.00
2023-05-06T00:24:37.545Z,100.00
2023-05-06T00:27:05.745Z,100.00
2023-05-06T00:29:33.834Z,100.00
2023-05-06T00:32:02.185Z,100.00
2023-05-06T00:34:30.450Z,100.00
2023-05-06T00:36:59.994Z,100.00
2023-05-06T00:39:28.037Z,100.00
2023-05-06T00:42:02.356Z,100.00
2023-05-06T00:44:30.682Z,100.00
2023-05-06T00:47:00.872Z,100.00
2023-05-06T00:49:30.483Z,100.00
2023-05-06T00:52:02.771Z,100.00
2023-05-06T00:54:30.975Z,100.00
2023-05-06T00:56:59.187Z,100.00
2023-05-06T00:59:27.307Z,100.00
2023-05-06T01:01:55.558Z,100.00
2023-05-06T01:04:25.166Z,100.00
2023-05-06T01:07:06.153Z,100.00
2023-05-06T01:09:40.854Z,100.00
2023-05-06T01:12:13.564Z,100.00
2023-05-06T01:14:44.466Z,100.00
2023-05-06T01:17:14.227Z,100.00
2023-05-06T01:19:46.739Z,100.00
2023-05-06T01:22:16.928Z,100.00
2023-05-06T01:24:48.096Z,100.00
2023-05-06T01:27:18.379Z,100.00
2023-05-06T01:29:48.618Z,100.00
2023-05-06T01:32:34.562Z,100.00
2023-05-06T01:35:11.102Z,100.00
2023-05-06T01:37:46.680Z,100.00
2023-05-06T01:40:17.634Z,100.00
2023-05-06T01:42:48.902Z,100.00
2023-05-06T01:45:19.516Z,100.00
2023-05-06T01:47:48.307Z,100.00
2023-05-06T01:50:16.886Z,100.00
2023-05-06T01:52:45.042Z,100.00
2023-05-06T01:55:13.161Z,100.00
2023-05-06T01:57:42.646Z,100.00
2023-05-06T02:00:11.683Z,100.00
2023-05-06T02:02:39.822Z,100.00
2023-05-06T02:05:09.331Z,100.00
2023-05-06T02:07:37.656Z,100.00
2023-05-06T02:10:06.361Z,100.00
2023-05-06T02:12:34.477Z,100.00
2023-05-06T02:15:04.352Z,100.00
2023-05-06T02:17:32.487Z,100.00
2023-05-06T02:20:00.820Z,100.00
2023-05-06T02:22:28.886Z,100.00
2023-05-06T02:24:57.002Z,100.00
2023-05-06T02:27:25.199Z,100.00
2023-05-06T02:29:53.266Z,100.00
2023-05-06T02:32:22.814Z,100.00
2023-05-06T02:34:51.793Z,100.00
2023-05-06T02:37:19.924Z,100.00
2023-05-06T02:39:47.993Z,100.00
2023-05-06T02:42:16.895Z,100.00
2023-05-06T02:44:45.080Z,100.00
2023-05-06T02:47:13.119Z,100.00
2023-05-06T02:49:42.590Z,100.00
2023-05-06T02:52:10.718Z,100.00
2023-05-06T02:54:38.767Z,100.00
2023-05-06T02:57:06.847Z,100.00
2023-05-06T02:59:35.153Z,100.00
2023-05-06T03:02:03.284Z,100.00
2023-05-06T03:04:31.493Z,100.00
2023-05-06T03:07:01.000Z,100.00
2023-05-06T03:09:29.074Z,100.00
2023-05-06T03:11:57.913Z,100.00
2023-05-06T03:14:26.228Z,100.00
2023-05-06T03:16:54.331Z,100.00
2023-05-06T03:19:22.580Z,100.00
2023-05-06T03:21:50.854Z,100.00
2023-05-06T03:24:20.331Z,100.00
2023-05-06T03:26:48.460Z,100.00
2023-05-06T03:29:16.620Z,100.00
2023-05-06T03:31:44.773Z,100.00
2023-05-06T03:34:12.997Z,100.00
2023-05-06T03:36:41.424Z,100.00
2023-05-06T03:39:09.590Z,100.00
2023-05-06T03:41:39.044Z,100.00
2023-05-06T03:44:07.134Z,100.00
2023-05-06T03:46:35.324Z,100.00
2023-05-06T03:49:03.660Z,100.00
2023-05-06T03:51:31.890Z,100.00
2023-05-06T03:54:00.454Z,100.00
2023-05-06T03:56:28.504Z,100.00
2023-05-06T03:58:58.055Z,100.00
2023-05-06T04:01:28.940Z,100.00
2023-05-06T04:03:57.101Z,100.00
2023-05-06T04:06:26.207Z,100.00
2023-05-06T04:08:57.060Z,100.00
2023-05-06T04:11:25.249Z,100.00
2023-05-06T04:13:53.370Z,100.00
2023-05-06T04:16:23.307Z,100.00
2023-05-06T04:18:51.828Z,100.00
2023-05-06T04:21:19.975Z,100.00
2023-05-06T04:23:48.083Z,100.00
2023-05-06T04:26:18.979Z,100.00
2023-05-06T04:28:47.142Z,100.00
2023-05-06T04:31:15.701Z,100.00
2023-05-06T04:33:45.219Z,100.00
2023-05-06T04:36:13.377Z,100.00
2023-05-06T04:38:41.887Z,100.00
2023-05-06T04:41:10.022Z,100.00
2023-05-06T04:43:38.114Z,100.00
2023-05-06T04:46:06.386Z,100.00
2023-05-06T04:48:34.539Z,100.00
2023-05-06T04:51:05.503Z,100.00
2023-05-06T04:53:33.741Z,100.00
2023-05-06T04:56:01.840Z,100.00
2023-05-06T04:58:34.547Z,100.00
2023-05-06T05:01:05.927Z,100.00
2023-05-06T05:03:34.018Z,100.00
2023-05-06T05:06:03.563Z,100.00
2023-05-06T05:08:31.701Z,100.00
2023-05-06T05:11:01.698Z,100.00
2023-05-06T05:13:29.787Z,100.00
2023-05-06T05:15:58.050Z,100.00
2023-05-06T05:18:26.295Z,100.00
2023-05-06T05:20:54.506Z,100.00
2023-05-06T05:23:24.320Z,100.00
2023-05-06T05:25:52.434Z,100.00
2023-05-06T05:28:20.455Z,100.00
2023-05-06T05:30:48.611Z,100.00
2023-05-06T05:33:17.088Z,100.00
2023-05-06T05:35:45.385Z,100.00
2023-05-06T05:38:14.437Z,100.00
2023-05-06T05:40:43.969Z,100.00
2023-05-06T05:43:12.070Z,100.00
2023-05-06T05:45:40.134Z,100.00
2023-05-06T05:48:08.300Z,93.50
2023-05-06T05:50:36.437Z,82.47
2023-05-06T05:53:05.725Z,74.07
2023-05-06T05:55:33.883Z,70.09
2023-05-06T05:58:03.400Z,65.12
2023-05-06T06:00:31.469Z,64.25
2023-05-06T06:02:59.750Z,57.88
2023-05-06T06:05:27.983Z,56.02
2023-05-06T06:07:56.134Z,55.64
2023-05-06T06:10:24.267Z,53.81
2023-05-06T06:12:52.476Z,53.29
2023-05-06T06:15:22.371Z,53.43
2023-05-06T06:17:50.518Z,54.44
2023-05-06T06:20:18.773Z,56.14
2023-05-06T06:22:47.054Z,55.70
2023-05-06T06:25:15.332Z,55.22
2023-05-06T06:27:43.415Z,56.91
2023-05-06T06:30:12.179Z,56.94
2023-05-06T06:32:49.619Z,57.24
2023-05-06T06:35:18.119Z,59.13
2023-05-06T06:37:46.282Z,59.17
2023-05-06T06:40:15.105Z,56.54
2023-05-06T06:42:43.327Z,57.67
2023-05-06T06:45:12.634Z,55.49
2023-05-06T06:47:42.447Z,55.83
2023-05-06T06:50:11.611Z,56.69
2023-05-06T06:52:39.698Z,55.69
2023-05-06T06:55:08.911Z,56.17
2023-05-06T06:57:37.939Z,55.70
2023-05-06T07:00:06.647Z,54.81
2023-05-06T07:02:34.909Z,56.55
2023-05-06T07:05:04.443Z,56.83
2023-05-06T07:07:32.589Z,57.08
2023-05-06T07:10:01.108Z,58.16
2023-05-06T07:12:29.354Z,56.51
2023-05-06T07:14:57.464Z,54.88
2023-05-06T07:17:25.790Z,55.73
2023-05-06T07:19:54.080Z,55.58
2023-05-06T07:22:23.608Z,55.58
2023-05-06T07:24:51.716Z,56.11
2023-05-06T07:27:19.869Z,55.06
2023-05-06T07:29:48.074Z,54.86
2023-05-06T07:32:22.497Z,54.46
2023-05-06T07:34:51.034Z,55.82
2023-05-06T07:37:19.152Z,54.61
2023-05-06T07:39:48.776Z,54.27
2023-05-06T07:42:19.247Z,55.36
2023-05-06T07:44:47.408Z,55.11
2023-05-06T07:47:27.727Z,54.66
2023-05-06T07:49:57.733Z,53.79
2023-05-06T07:52:26.262Z,53.25
2023-05-06T07:54:55.828Z,54.19
2023-05-06T07:57:23.930Z,53.08
2023-05-06T07:59:53.310Z,54.06
2023-05-06T08:02:21.502Z,53.72
2023-05-06T08:04:51.647Z,53.44
2023-05-06T08:07:20.522Z,54.65
2023-05-06T08:09:48.800Z,53.79
2023-05-06T08:12:18.393Z,52.76
2023-05-06T08:14:46.824Z,53.94
2023-05-06T08:17:14.978Z,54.96
2023-05-06T08:19:46.455Z,51.96
2023-05-06T08:22:18.825Z,53.17
2023-05-06T08:24:50.348Z,53.88
2023-05-06T08:27:23.479Z,53.92
2023-05-06T08:29:54.263Z,55.49
2023-05-06T08:32:25.933Z,54.73
2023-05-06T08:34:58.897Z,56.26
2023-05-06T08:37:31.159Z,53.43
2023-05-06T08:40:00.021Z,55.31
2023-05-06T08:42:31.567Z,55.34
2023-05-06T08:45:00.792Z,54.68
2023-05-06T08:47:32.196Z,55.45
2023-05-06T08:50:04.870Z,55.52
2023-05-06T08:52:36.575Z,54.47
2023-05-06T08:55:09.170Z,54.27
2023-05-06T08:57:43.583Z,56.52
2023-05-06T09:00:16.217Z,53.64
2023-05-06T09:02:47.868Z,53.11
2023-05-06T09:05:18.963Z,52.82
2023-05-06T09:07:50.110Z,53.90
2023-05-06T09:10:21.443Z,52.88
2023-05-06T09:12:58.841Z,53.87
2023-05-06T09:15:30.266Z,52.78
2023-05-06T09:18:04.161Z,52.27
2023-05-06T09:20:37.692Z,52.82
2023-05-06T09:23:10.710Z,52.51
2023-05-06T09:25:42.560Z,53.43
2023-05-06T09:28:16.490Z,53.16
2023-05-06T09:30:52.121Z,52.18
2023-05-06T09:33:24.149Z,51.01
2023-05-06T09:35:55.628Z,51.64
2023-05-06T09:38:27.016Z,51.21
2023-05-06T09:40:59.037Z,50.87
2023-05-06T09:43:32.386Z,51.28
2023-05-06T09:46:09.077Z,52.96
2023-05-06T09:48:40.676Z,52.16
2023-05-06T09:51:12.587Z,52.54
2023-05-06T09:53:43.857Z,53.68
2023-05-06T09:56:15.721Z,50.77
2023-05-06T09:58:47.183Z,52.01
2023-05-06T10:01:25.195Z,51.35
2023-05-06T10:04:00.566Z,51.87
2023-05-06T10:06:29.090Z,50.93
2023-05-06T10:08:58.336Z,50.93
2023-05-06T10:11:27.354Z,50.70
2023-05-06T10:13:56.941Z,47.63
2023-05-06T10:16:25.127Z,47.45
2023-05-06T10:18:55.749Z,45.08
2023-05-06T10:21:29.034Z,44.93
2023-05-06T10:24:04.664Z,45.31
2023-05-06T10:26:34.146Z,41.19
2023-05-06T10:29:06.075Z,41.07
2023-05-06T10:31:35.748Z,42.54
2023-05-06T10:34:08.091Z,44.29
2023-05-06T10:36:38.625Z,44.28
2023-05-06T10:39:08.118Z,43.46
2023-05-06T10:41:37.785Z,43.85
2023-05-06T10:44:07.389Z,43.08
2023-05-06T10:46:59.847Z,44.28
2023-05-06T10:49:29.163Z,46.13
2023-05-06T10:52:14.677Z,45.79
2023-05-06T10:54:51.708Z,44.92
2023-05-06T10:57:20.940Z,46.94
2023-05-06T10:59:50.850Z,45.95
2023-05-06T11:02:21.501Z,45.95
2023-05-06T11:05:00.815Z,45.28
2023-05-06T11:07:29.054Z,44.53
2023-05-06T11:09:58.854Z,44.17
2023-05-06T11:12:46.426Z,44.47
2023-05-06T11:15:26.661Z,43.53
2023-05-06T11:17:55.973Z,43.71
2023-05-06T11:20:25.922Z,44.02
2023-05-06T11:22:54.809Z,43.69
2023-05-06T11:25:45.090Z,42.78
2023-05-06T11:28:14.330Z,41.30
2023-05-06T11:30:45.380Z,44.31
2023-05-06T11:33:21.611Z,43.07
2023-05-06T11:35:53.632Z,43.70
2023-05-06T11:38:23.531Z,42.06
2023-05-06T11:40:55.104Z,43.67
2023-05-06T11:43:26.364Z,45.04
2023-05-06T11:45:59.057Z,43.41
2023-05-06T11:48:30.106Z,43.75
2023-05-06T11:51:01.040Z,43.94
2023-05-06T11:53:33.885Z,42.51
2023-05-06T11:56:05.649Z,44.44
2023-05-06T11:58:37.489Z,44.05
2023-05-06T12:01:10.957Z,43.79
2023-05-06T12:03:42.347Z,43.45
2023-05-06T12:06:14.162Z,43.52
2023-05-06T12:08:44.986Z,45.28
2023-05-06T12:11:16.384Z,43.65
2023-05-06T12:13:51.048Z,43.61
2023-05-06T12:16:23.876Z,44.88
2023-05-06T12:18:56.235Z,45.74
2023-05-06T12:21:27.932Z,45.80
2023-05-06T12:24:00.318Z,45.56
2023-05-06T12:26:33.018Z,46.83
2023-05-06T12:29:08.973Z,47.12
2023-05-06T12:31:38.987Z,47.24
2023-05-06T12:34:07.246Z,48.02
2023-05-06T12:36:40.821Z,48.09
2023-05-06T12:39:09.543Z,49.04
2023-05-06T12:41:41.109Z,49.35
2023-05-06T12:44:34.841Z,48.77
2023-05-06T12:47:05.780Z,48.81
2023-05-06T12:49:50.481Z,48.45
2023-05-06T12:52:20.010Z,49.39
2023-05-06T12:54:49.048Z,49.12
2023-05-06T12:57:17.474Z,49.56
2023-05-06T12:59:49.460Z,48.87
2023-05-06T13:02:19.773Z,50.09
2023-05-06T13:04:47.981Z,49.91
2023-05-06T13:07:16.064Z,50.77
2023-05-06T13:12:13.189Z,52.33
2023-05-06T13:14:41.389Z,53.20
2023-05-06T13:17:09.845Z,53.75
2023-05-06T13:19:39.365Z,53.06
2023-05-06T13:22:07.627Z,53.73
2023-05-06T13:24:36.730Z,53.68
2023-05-06T13:27:04.905Z,53.62
2023-05-06T13:29:33.097Z,53.21
2023-05-06T13:32:01.870Z,53.20
2023-05-06T13:34:30.013Z,52.49
2023-05-06T13:37:00.007Z,53.03
2023-05-06T13:39:28.225Z,53.44
2023-05-06T13:41:56.360Z,52.66
2023-05-06T13:44:24.775Z,52.34
2023-05-06T13:46:53.377Z,53.53
2023-05-06T13:49:21.591Z,55.64
2023-05-06T13:51:50.042Z,59.48
2023-05-06T13:54:19.637Z,63.44
2023-05-06T13:56:47.842Z,64.17
2023-05-06T13:59:16.020Z,65.23
2023-05-06T14:01:44.613Z,66.53
2023-05-06T14:04:12.746Z,67.68
2023-05-06T14:06:40.767Z,68.31
2023-05-06T14:09:09.198Z,70.34
2023-05-06T14:11:38.798Z,71.58
2023-05-06T14:14:07.575Z,71.59
2023-05-06T14:16:35.870Z,74.43
2023-05-06T14:19:04.823Z,75.06
2023-05-06T14:21:32.963Z,77.53
2023-05-06T14:24:01.256Z,79.84
2023-05-06T14:26:29.424Z,83.99
2023-05-06T14:28:58.960Z,86.95
2023-05-06T14:31:27.969Z,89.57
2023-05-06T14:33:56.325Z,93.01
2023-05-06T14:36:24.392Z,94.11
2023-05-06T14:38:52.557Z,94.65
2023-05-06T14:41:21.018Z,98.96
2023-05-06T14:43:49.212Z,100.00
2023-05-06T14:46:19.119Z,100.00
2023-05-06T14:48:47.223Z,100.00
2023-05-06T14:51:15.347Z,100.00
2023-05-06T14:53:43.604Z,100.00
2023-05-06T14:56:12.080Z,100.00
2023-05-06T14:58:40.552Z,100.00
2023-05-06T15:01:08.726Z,100.00
2023-05-06T15:03:38.317Z,100.00
2023-05-06T15:06:06.737Z,100.00
2023-05-06T15:08:34.940Z,100.00
2023-05-06T15:11:04.292Z,100.00
2023-05-06T15:13:32.682Z,100.00
2023-05-06T15:16:00.865Z,100.00
2023-05-06T15:18:29.027Z,100.00
2023-05-06T15:21:01.647Z,100.00
2023-05-06T15:23:29.902Z,100.00
2023-05-06T15:25:58.934Z,100.00
2023-05-06T15:28:27.174Z,100.00
2023-05-06T15:30:55.329Z,100.00
2023-05-06T15:33:23.364Z,100.00
2023-05-06T15:35:51.603Z,100.00
2023-05-06T15:38:21.032Z,100.00
2023-05-06T15:40:52.211Z,100.00
2023-05-06T15:43:23.778Z,100.00
2023-05-06T15:45:53.081Z,100.00
2023-05-06T15:48:21.283Z,100.00
2023-05-06T15:50:49.388Z,100.00
2023-05-06T15:53:17.559Z,100.00
2023-05-06T15:55:56.319Z,100.00
2023-05-06T15:58:26.105Z,100.00
2023-05-06T16:00:54.196Z,100.00
2023-05-06T16:03:22.403Z,100.00
2023-05-06T16:05:50.742Z,100.00
2023-05-06T16:08:18.850Z,98.13
2023-05-06T16:10:48.406Z,91.79
2023-05-06T16:13:16.574Z,92.96
2023-05-06T16:15:45.077Z,97.80
2023-05-06T16:18:13.451Z,98.79
2023-05-06T16:20:41.805Z,93.70
2023-05-06T16:23:10.117Z,94.95
2023-05-06T16:25:39.050Z,94.36
2023-05-06T16:28:09.578Z,94.77
2023-05-06T16:30:38.159Z,94.01
2023-05-06T16:33:06.437Z,94.48
2023-05-06T16:35:34.573Z,99.74
2023-05-06T16:38:02.645Z,100.00
2023-05-06T16:40:31.218Z,100.00
2023-05-06T16:42:59.353Z,100.00
2023-05-06T16:45:28.950Z,100.00
2023-05-06T16:47:57.225Z,100.00
2023-05-06T16:50:25.447Z,100.00
2023-05-06T16:52:54.186Z,100.00
2023-05-06T16:55:22.643Z,100.00
2023-05-06T16:57:50.755Z,100.00
2023-05-06T17:00:19.841Z,100.00
2023-05-06T17:02:49.447Z,100.00
2023-05-06T17:05:20.172Z,100.00
2023-05-06T17:07:50.752Z,100.00
2023-05-06T17:10:19.215Z,100.00
2023-05-06T17:12:47.274Z,100.00
2023-05-06T17:15:15.424Z,100.00
2023-05-06T17:17:43.571Z,100.00
2023-05-06T17:20:13.762Z,100.00
2023-05-06T17:22:41.935Z,100.00
2023-05-06T17:25:10.659Z,100.00
2023-05-06T17:27:38.793Z,100.00
2023-05-06T17:30:09.614Z,100.00
2023-05-06T17:32:37.919Z,100.00
2023-05-06T17:35:06.654Z,100.00
2023-05-06T17:37:36.427Z,100.00
2023-05-06T17:40:06.012Z,100.00
2023-05-06T17:42:35.145Z,100.00
2023-05-06T17:45:03.551Z,100.00
2023-05-06T17:47:31.653Z,100.00
2023-05-06T17:49:59.694Z,100.00
2023-05-06T17:52:27.759Z,100.00
2023-05-06T17:55:11.306Z,100.00
2023-05-06T17:57:44.926Z,100.00
2023-05-06T18:00:14.136Z,100.00
2023-05-06T18:02:42.386Z,100.00
2023-05-06T18:05:11.488Z,100.00
2023-05-06T18:07:40.142Z,100.00
2023-05-06T18:10:10.982Z,100.00
2023-05-06T18:12:39.309Z,100.00
2023-05-06T18:15:09.064Z,100.00
2023-05-06T18:17:37.415Z,100.00
2023-05-06T18:20:06.677Z,100.00
2023-05-06T18:22:34.971Z,100.00
2023-05-06T18:25:04.404Z,100.00
2023-05-06T18:27:33.959Z,100.00
2023-05-06T18:30:02.456Z,100.00
2023-05-06T18:32:30.563Z,100.00
2023-05-06T18:34:58.724Z,100.00
2023-05-06T18:37:28.742Z,100.00
2023-05-06T18:39:56.904Z,100.00
2023-05-06T18:42:25.057Z,100.00
2023-05-06T18:44:54.612Z,100.00
2023-05-06T18:47:22.747Z,100.00
2023-05-06T18:49:50.935Z,100.00
2023-05-06T18:52:19.232Z,100.00
2023-05-06T18:54:47.470Z,100.00
2023-05-06T18:57:15.732Z,100.00
2023-05-06T18:59:43.847Z,100.00
2023-05-06T19:02:13.330Z,100.00
2023-05-06T19:04:41.459Z,100.00
2023-05-06T19:07:10.279Z,100.00
2023-05-06T19:09:38.435Z,100.00
2023-05-06T19:12:06.733Z,100.00
2023-05-06T19:14:35.289Z,100.00
2023-05-06T19:17:04.711Z,100.00
2023-05-06T19:19:34.432Z,100.00
2023-05-06T19:22:02.810Z,100.00
2023-05-06T19:24:31.589Z,100.00
2023-05-06T19:26:59.710Z,100.00
2023-05-06T19:29:27.795Z,100.00
2023-05-06T19:31:55.965Z,100.00
2023-05-06T19:34:24.139Z,100.00
2023-05-06T19:36:53.792Z,100.00
2023-05-06T19:39:22.034Z,100.00
2023-05-06T19:41:50.420Z,100.00
2023-05-06T19:44:18.536Z,100.00
2023-05-06T19:46:46.845Z,100.00
2023-05-06T19:49:15.038Z,100.00
2023-05-06T19:51:43.102Z,100.00
2023-05-06T19:54:12.510Z,100.00
2023-05-06T19:56:40.601Z,100.00
2023-05-06T19:59:08.653Z,100.00
2023-05-06T20:01:36.755Z,100.00
2023-05-06T20:04:05.344Z,100.00
2023-05-06T20:06:33.603Z,100.00
2023-05-06T20:09:01.714Z,100.00
2023-05-06T20:11:31.191Z,100.00
2023-05-06T20:13:59.281Z,100.00
2023-05-06T20:16:27.412Z,100.00
2023-05-06T20:18:55.614Z,100.00
2023-05-06T20:21:23.998Z,100.00
2023-05-06T20:23:52.121Z,100.00
2023-05-06T20:26:23.305Z,100.00
2023-05-06T20:28:54.489Z,100.00
2023-05-06T20:31:22.554Z,100.00
2023-05-06T20:33:50.730Z,100.00
2023-05-06T20:36:19.779Z,100.00
2023-05-06T20:38:50.099Z,100.00
2023-05-06T20:41:18.301Z,100.00
2023-05-06T20:43:46.435Z,100.00
2023-05-06T20:46:16.074Z,100.00
2023-05-06T20:48:44.124Z,100.00
2023-05-06T20:51:12.248Z,100.00
2023-05-06T20:53:40.312Z,100.00
2023-05-06T20:56:17.199Z,100.00
2023-05-06T20:58:45.245Z,100.00
2023-05-06T21:01:13.421Z,100.00
2023-05-06T21:03:43.117Z,100.00
2023-05-06T21:06:11.551Z,100.00
2023-05-06T21:08:39.655Z,100.00
2023-05-06T21:11:07.992Z,100.00
2023-05-06T21:13:36.128Z,100.00
2023-05-06T21:16:04.365Z,100.00
2023-05-06T21:18:32.604Z,100.00
2023-05-06T21:21:02.220Z,100.00
2023-05-06T21:23:30.292Z,100.00
2023-05-06T21:25:59.490Z,100.00
2023-05-06T21:28:27.596Z,100.00
2023-05-06T21:30:55.887Z,100.00
2023-05-06T21:33:24.019Z,100.00
2023-05-06T21:35:52.040Z,100.00
2023-05-06T21:38:21.593Z,100.00
2023-05-06T21:40:49.657Z,100.00
2023-05-06T21:43:18.513Z,100.00
2023-05-06T21:45:46.581Z,100.00
2023-05-06T21:48:14.639Z,100.00
2023-05-06T21:50:42.730Z,100.00
2023-05-06T21:53:10.810Z,100.00
2023-05-06T21:55:40.250Z,100.00
2023-05-06T21:58:08.369Z,100.00
2023-05-06T22:00:36.573Z,100.00
2023-05-06T22:03:05.088Z,100.00
2023-05-06T22:05:33.338Z,100.00
2023-05-06T22:08:01.671Z,100.00
2023-05-06T22:10:29.825Z,100.00
2023-05-06T22:12:59.408Z,100.00
2023-05-06T22:15:27.535Z,100.00
2023-05-06T22:17:55.690Z,100.00
2023-05-06T22:20:24.288Z,100.00
2023-05-06T22:22:52.626Z,100.00
2023-05-06T22:25:21.026Z,100.00
2023-05-06T22:27:49.158Z,100.00
2023-05-06T22:30:18.887Z,100.00
2023-05-06T22:32:46.967Z,100.00
2023-05-06T22:35:15.924Z,100.00
2023-05-06T22:37:44.089Z,100.00
2023-05-06T22:40:13.328Z,100.00
2023-05-06T22:42:41.402Z,100.00
2023-05-06T22:45:11.718Z,100.00
2023-05-06T22:47:41.590Z,100.00
2023-05-06T22:50:10.452Z,100.00
2023-05-06T22:52:39.058Z,100.00
2023-05-06T22:55:09.904Z,100.00
2023-05-06T22:57:38.281Z,100.00
2023-05-06T23:00:08.780Z,100.00
2023-05-06T23:02:37.460Z,100.00
2023-05-06T23:05:07.860Z,100.00
2023-05-06T23:07:36.588Z,100.00
2023-05-06T23:10:04.717Z,100.00
2023-05-06T23:12:33.708Z,100.00
2023-05-06T23:15:01.986Z,100.00
2023-05-06T23:17:30.110Z,100.00
2023-05-06T23:19:59.174Z,100.00
2023-05-06T23:22:28.673Z,100.00
2023-05-06T23:24:56.928Z,100.00
2023-05-06T23:27:25.023Z,100.00
2023-05-06T23:29:53.128Z,100.00
2023-05-06T23:32:21.319Z,100.00
2023-05-06T23:34:49.774Z,100.00
2023-05-06T23:37:17.876Z,100.00
2023-05-06T23:39:48.092Z,100.00
2023-05-06T23:42:16.191Z,100.00
2023-05-06T23:44:44.271Z,100.00
2023-05-06T23:47:12.401Z,100.00
2023-05-06T23:49:40.489Z,100.00
2023-05-06T23:52:08.535Z,100.00
2023-05-06T23:54:36.692Z,100.00
2023-05-06T23:57:06.301Z,100.00
2023-05-06T23:59:34.422Z,100.00
